createdAt,value
2023-03-15T00:00:27.022Z,99.13
2023-03-15T00:01:27.005Z,99.13
2023-03-15T00:02:27.037Z,99.13
2023-03-15T00:03:27.038Z,99.13
2023-03-15T00:04:26.969Z,99.23
2023-03-15T00:05:26.963Z,99.44
2023-03-15T00:06:26.936Z,99.44
2023-03-15T00:07:26.931Z,99.13
2023-03-15T00:08:26.918Z,98.75
2023-03-15T00:09:26.900Z,98.65
2023-03-15T00:10:26.886Z,98.44
2023-03-15T00:11:26.904Z,97.92
2023-03-15T00:12:26.871Z,97.81
2023-03-15T00:13:26.870Z,97.71
2023-03-15T00:14:26.848Z,98.02
2023-03-15T00:15:26.831Z,98.02
2023-03-15T00:16:26.818Z,98.13
2023-03-15T00:17:26.808Z,98.34
2023-03-15T00:18:26.785Z,98.34
2023-03-15T00:19:26.780Z,98.02
2023-03-15T00:20:26.764Z,97.40
2023-03-15T00:21:26.757Z,97.61
2023-03-15T00:22:26.743Z,97.50
2023-03-15T00:23:26.734Z,97.40
2023-03-15T00:24:26.711Z,96.98
2023-03-15T00:25:26.716Z,96.67
2023-03-15T00:26:26.704Z,96.56
2023-03-15T00:27:26.705Z,96.88
2023-03-15T00:28:26.669Z,96.88
2023-03-15T00:29:26.666Z,96.98
2023-03-15T00:30:26.638Z,97.19
2023-03-15T00:31:26.714Z,97.19
2023-03-15T00:32:26.678Z,97.30
2023-03-15T00:33:26.622Z,97.40
2023-03-15T00:34:26.600Z,97.19
2023-03-15T00:35:26.609Z,97.09
2023-03-15T00:36:26.575Z,97.09
2023-03-15T00:37:26.563Z,97.19
2023-03-15T00:38:26.547Z,97.50
2023-03-15T00:39:26.546Z,97.30
2023-03-15T00:40:26.519Z,97.19
2023-03-15T00:41:26.506Z,97.09
2023-03-15T00:42:26.490Z,97.30
2023-03-15T00:43:26.510Z,97.30
2023-03-15T00:44:26.474Z,97.30
2023-03-15T00:45:26.451Z,97.50
2023-03-15T00:46:26.465Z,97.40
2023-03-15T00:47:26.426Z,97.50
2023-03-15T00:48:26.422Z,97.40
2023-03-15T00:49:26.418Z,97.13
2023-03-15T00:50:26.422Z,97.34
2023-03-15T00:51:26.387Z,97.65
2023-03-15T00:52:26.375Z,98.28
2023-03-15T00:53:26.367Z,98.69
2023-03-15T00:54:26.352Z,98.49
2023-03-15T00:55:26.337Z,98.63
2023-03-15T00:56:26.329Z,98.53
2023-03-15T00:57:26.307Z,98.43
2023-03-15T00:58:27.556Z,97.70
2023-03-15T00:59:26.316Z,97.22
2023-03-15T01:00:26.284Z,97.22
2023-03-15T01:01:26.351Z,96.80
2023-03-15T01:02:26.321Z,96.59
2023-03-15T01:03:26.232Z,96.70
2023-03-15T01:04:26.233Z,96.28
2023-03-15T01:05:26.212Z,95.86
2023-03-15T01:06:26.218Z,95.76
2023-03-15T01:07:26.186Z,95.97
2023-03-15T01:08:26.169Z,96.38
2023-03-15T01:09:26.166Z,96.44
2023-03-15T01:10:26.142Z,95.97
2023-03-15T01:11:26.159Z,95.76
2023-03-15T01:12:26.127Z,95.76
2023-03-15T01:13:26.117Z,95.65
2023-03-15T01:14:26.102Z,95.55
2023-03-15T01:15:26.112Z,94.82
2023-03-15T01:16:26.161Z,94.82
2023-03-15T01:17:26.062Z,94.61
2023-03-15T01:18:26.052Z,93.25
2023-03-15T01:19:26.038Z,92.83
2023-03-15T01:20:26.019Z,92.83
2023-03-15T01:21:26.010Z,92.21
2023-03-15T01:22:25.995Z,92.00
2023-03-15T01:23:25.999Z,91.83
2023-03-15T01:24:25.976Z,92.14
2023-03-15T01:25:25.962Z,92.63
2023-03-15T01:26:25.961Z,92.73
2023-03-15T01:27:25.940Z,90.89
2023-03-15T01:28:25.918Z,90.06
2023-03-15T01:29:25.930Z,89.84
2023-03-15T01:30:25.904Z,90.47
2023-03-15T01:31:25.981Z,91.77
2023-03-15T01:32:25.879Z,91.94
2023-03-15T01:33:25.867Z,92.04
2023-03-15T01:34:25.862Z,91.83
2023-03-15T01:35:25.830Z,92.14
2023-03-15T01:36:25.820Z,92.14
2023-03-15T01:37:25.808Z,92.56
2023-03-15T01:38:25.796Z,92.66
2023-03-15T01:39:25.792Z,92.88
2023-03-15T01:40:25.792Z,92.56
2023-03-15T01:41:25.793Z,92.66
2023-03-15T01:42:25.750Z,92.88
2023-03-15T01:43:25.744Z,92.98
2023-03-15T01:44:25.732Z,93.15
2023-03-15T01:45:25.728Z,91.94
2023-03-15T01:46:25.761Z,91.72
2023-03-15T01:47:25.718Z,91.94
2023-03-15T01:48:25.690Z,91.52
2023-03-15T01:49:25.675Z,91.72
2023-03-15T01:50:25.645Z,91.00
2023-03-15T01:51:25.637Z,91.00
2023-03-15T01:52:25.650Z,91.00
2023-03-15T01:53:25.607Z,91.00
2023-03-15T01:54:25.599Z,91.00
2023-03-15T01:55:25.586Z,91.20
2023-03-15T01:56:25.588Z,91.72
2023-03-15T01:57:25.564Z,91.83
2023-03-15T01:58:25.566Z,91.94
2023-03-15T01:59:25.538Z,91.31
2023-03-15T02:00:25.542Z,91.31
2023-03-15T02:01:25.527Z,91.62
2023-03-15T02:02:25.585Z,92.04
2023-03-15T02:03:25.521Z,92.25
2023-03-15T02:04:25.485Z,92.56
2023-03-15T02:05:25.473Z,92.56
2023-03-15T02:06:25.452Z,92.56
2023-03-15T02:07:25.448Z,92.35
2023-03-15T02:08:25.434Z,92.25
2023-03-15T02:09:25.420Z,92.14
2023-03-15T02:10:25.406Z,92.14
2023-03-15T02:11:25.396Z,92.56
2023-03-15T02:12:25.374Z,92.56
2023-03-15T02:13:25.383Z,92.29
2023-03-15T02:14:25.355Z,91.98
2023-03-15T02:15:25.352Z,92.14
2023-03-15T02:16:25.368Z,92.40
2023-03-15T02:17:25.314Z,92.50
2023-03-15T02:18:25.305Z,92.08
2023-03-15T02:19:25.314Z,92.71
2023-03-15T02:20:25.272Z,92.40
2023-03-15T02:21:25.272Z,92.19
2023-03-15T02:22:25.255Z,92.29
2023-03-15T02:23:25.245Z,92.40
2023-03-15T02:24:25.228Z,92.60
2023-03-15T02:25:25.215Z,92.71
2023-03-15T02:26:25.203Z,92.82
2023-03-15T02:27:25.265Z,92.65
2023-03-15T02:28:25.172Z,92.23
2023-03-15T02:29:25.160Z,92.44
2023-03-15T02:30:25.153Z,92.44
2023-03-15T02:31:25.163Z,92.75
2023-03-15T02:32:25.195Z,92.96
2023-03-15T02:33:25.122Z,93.17
2023-03-15T02:34:25.109Z,92.96
2023-03-15T02:35:25.107Z,92.82
2023-03-15T02:36:25.085Z,92.75
2023-03-15T02:37:25.060Z,92.71
2023-03-15T02:38:25.062Z,92.92
2023-03-15T02:39:25.033Z,93.02
2023-03-15T02:40:25.031Z,93.13
2023-03-15T02:41:25.011Z,93.13
2023-03-15T02:42:25.013Z,93.02
2023-03-15T02:43:25.019Z,92.82
2023-03-15T02:44:24.976Z,93.13
2023-03-15T02:45:24.975Z,93.02
2023-03-15T02:46:24.996Z,91.87
2023-03-15T02:47:24.952Z,91.71
2023-03-15T02:48:24.929Z,91.71
2023-03-15T02:49:24.917Z,92.02
2023-03-15T02:50:24.906Z,92.13
2023-03-15T02:51:24.921Z,92.44
2023-03-15T02:52:24.877Z,92.65
2023-03-15T02:53:24.869Z,92.65
2023-03-15T02:54:24.852Z,92.82
2023-03-15T02:55:24.840Z,92.65
2023-03-15T02:56:24.821Z,92.02
2023-03-15T02:57:24.816Z,91.71
2023-03-15T02:58:24.805Z,91.91
2023-03-15T02:59:24.779Z,91.91
2023-03-15T03:00:24.770Z,91.91
2023-03-15T03:01:24.841Z,91.91
2023-03-15T03:02:24.832Z,91.91
2023-03-15T03:03:24.743Z,91.91
2023-03-15T03:04:24.739Z,91.81
2023-03-15T03:05:24.715Z,91.85
2023-03-15T03:06:24.720Z,92.16
2023-03-15T03:07:24.810Z,92.48
2023-03-15T03:08:24.675Z,92.79
2023-03-15T03:09:24.664Z,93.11
2023-03-15T03:10:24.653Z,93.32
2023-03-15T03:11:24.640Z,93.42
2023-03-15T03:12:24.616Z,93.42
2023-03-15T03:13:24.615Z,93.63
2023-03-15T03:14:24.592Z,93.95
2023-03-15T03:15:24.589Z,93.63
2023-03-15T03:16:24.636Z,93.21
2023-03-15T03:17:24.560Z,93.42
2023-03-15T03:18:24.550Z,93.32
2023-03-15T03:19:24.525Z,93.74
2023-03-15T03:20:24.522Z,93.84
2023-03-15T03:21:24.493Z,93.52
2023-03-15T03:22:24.495Z,93.32
2023-03-15T03:23:24.497Z,93.52
2023-03-15T03:24:24.467Z,93.74
2023-03-15T03:25:24.446Z,93.63
2023-03-15T03:26:24.437Z,93.52
2023-03-15T03:27:24.424Z,93.74
2023-03-15T03:28:24.410Z,94.20
2023-03-15T03:29:24.398Z,93.78
2023-03-15T03:30:24.382Z,93.57
2023-03-15T03:31:24.370Z,93.78
2023-03-15T03:32:24.374Z,94.09
2023-03-15T03:33:24.348Z,94.30
2023-03-15T03:34:24.328Z,94.72
2023-03-15T03:35:24.319Z,94.82
2023-03-15T03:36:24.306Z,94.72
2023-03-15T03:37:24.283Z,94.40
2023-03-15T03:38:24.281Z,94.30
2023-03-15T03:39:24.289Z,94.62
2023-03-15T03:40:24.251Z,94.62
2023-03-15T03:41:24.237Z,94.51
2023-03-15T03:42:24.252Z,94.40
2023-03-15T03:43:24.212Z,94.30
2023-03-15T03:44:24.194Z,94.51
2023-03-15T03:45:24.185Z,94.72
2023-03-15T03:46:24.190Z,94.34
2023-03-15T03:47:24.161Z,94.03
2023-03-15T03:48:24.159Z,94.13
2023-03-15T03:49:24.127Z,94.03
2023-03-15T03:50:24.112Z,94.34
2023-03-15T03:51:24.106Z,94.03
2023-03-15T03:52:24.099Z,93.93
2023-03-15T03:53:24.073Z,94.13
2023-03-15T03:54:24.068Z,93.93
2023-03-15T03:55:24.071Z,93.87
2023-03-15T03:56:24.037Z,94.18
2023-03-15T03:57:24.031Z,94.13
2023-03-15T03:58:24.016Z,94.34
2023-03-15T03:59:24.009Z,94.70
2023-03-15T04:00:23.981Z,94.70
2023-03-15T04:01:23.976Z,94.81
2023-03-15T04:02:24.003Z,95.23
2023-03-15T04:03:23.942Z,95.12
2023-03-15T04:04:23.973Z,95.23
2023-03-15T04:05:23.926Z,95.33
2023-03-15T04:06:23.921Z,95.43
2023-03-15T04:07:23.892Z,95.43
2023-03-15T04:08:23.922Z,95.54
2023-03-15T04:09:23.865Z,95.54
2023-03-15T04:10:23.853Z,95.54
2023-03-15T04:11:23.869Z,95.33
2023-03-15T04:12:23.873Z,95.33
2023-03-15T04:13:23.831Z,95.01
2023-03-15T04:14:23.798Z,94.81
2023-03-15T04:15:23.806Z,94.70
2023-03-15T04:16:23.818Z,94.60
2023-03-15T04:17:23.780Z,94.70
2023-03-15T04:18:23.749Z,94.81
2023-03-15T04:19:23.740Z,95.33
2023-03-15T04:20:23.723Z,95.54
2023-03-15T04:21:23.720Z,96.06
2023-03-15T04:22:23.698Z,96.48
2023-03-15T04:23:23.724Z,96.69
2023-03-15T04:24:23.682Z,96.96
2023-03-15T04:25:23.664Z,97.28
2023-03-15T04:26:23.656Z,97.38
2023-03-15T04:27:23.661Z,97.49
2023-03-15T04:28:23.629Z,97.59
2023-03-15T04:29:23.615Z,97.17
2023-03-15T04:30:23.593Z,96.55
2023-03-15T04:31:23.656Z,96.02
2023-03-15T04:32:23.617Z,96.12
2023-03-15T04:33:23.564Z,96.33
2023-03-15T04:34:23.552Z,96.75
2023-03-15T04:35:23.556Z,96.96
2023-03-15T04:36:23.538Z,97.28
2023-03-15T04:37:23.509Z,97.59
2023-03-15T04:38:23.507Z,97.49
2023-03-15T04:39:23.479Z,97.28
2023-03-15T04:40:23.481Z,97.28
2023-03-15T04:41:23.458Z,97.28
2023-03-15T04:42:23.451Z,97.28
2023-03-15T04:43:23.578Z,97.38
2023-03-15T04:44:23.424Z,97.28
2023-03-15T04:45:23.412Z,97.06
2023-03-15T04:46:24.983Z,96.75
2023-03-15T04:47:23.378Z,96.86
2023-03-15T04:48:23.370Z,97.06
2023-03-15T04:49:23.358Z,97.28
2023-03-15T04:50:23.347Z,97.06
2023-03-15T04:51:23.341Z,96.90
2023-03-15T04:52:23.322Z,96.86
2023-03-15T04:53:23.313Z,96.55
2023-03-15T04:54:23.300Z,96.27
2023-03-15T04:55:23.289Z,96.02
2023-03-15T04:56:23.276Z,95.92
2023-03-15T04:57:23.259Z,95.33
2023-03-15T04:58:23.253Z,94.91
2023-03-15T04:59:23.257Z,94.91
2023-03-15T05:00:23.222Z,94.91
2023-03-15T05:01:23.204Z,94.85
2023-03-15T05:02:23.244Z,94.85
2023-03-15T05:03:23.170Z,94.85
2023-03-15T05:04:23.168Z,95.10
2023-03-15T05:05:23.181Z,95.42
2023-03-15T05:06:23.142Z,95.42
2023-03-15T05:07:23.124Z,95.52
2023-03-15T05:08:23.112Z,95.62
2023-03-15T05:09:23.111Z,95.62
2023-03-15T05:10:23.090Z,95.73
2023-03-15T05:11:23.068Z,95.73
2023-03-15T05:12:23.062Z,95.73
2023-03-15T05:13:23.042Z,95.73
2023-03-15T05:14:23.040Z,95.84
2023-03-15T05:15:23.146Z,95.84
2023-03-15T05:16:23.082Z,95.42
2023-03-15T05:17:22.994Z,94.89
2023-03-15T05:18:22.990Z,95.00
2023-03-15T05:19:22.975Z,95.10
2023-03-15T05:20:22.962Z,95.21
2023-03-15T05:21:22.957Z,95.52
2023-03-15T05:22:22.932Z,95.84
2023-03-15T05:23:22.924Z,95.84
2023-03-15T05:24:22.905Z,95.73
2023-03-15T05:25:22.896Z,95.67
2023-03-15T05:26:22.874Z,95.67
2023-03-15T05:27:22.868Z,95.94
2023-03-15T05:28:22.857Z,96.36
2023-03-15T05:29:22.851Z,96.57
2023-03-15T05:30:22.822Z,96.47
2023-03-15T05:31:22.872Z,96.51
2023-03-15T05:32:22.847Z,96.30
2023-03-15T05:33:22.791Z,96.30
2023-03-15T05:34:22.786Z,96.30
2023-03-15T05:35:22.783Z,96.41
2023-03-15T05:36:22.765Z,96.61
2023-03-15T05:37:22.743Z,96.83
2023-03-15T05:38:22.736Z,97.24
2023-03-15T05:39:22.757Z,97.20
2023-03-15T05:40:22.693Z,97.14
2023-03-15T05:41:22.685Z,97.03
2023-03-15T05:42:22.676Z,97.03
2023-03-15T05:43:22.660Z,97.14
2023-03-15T05:44:22.661Z,97.24
2023-03-15T05:45:22.635Z,97.14
2023-03-15T05:46:22.633Z,97.14
2023-03-15T05:47:22.643Z,97.08
2023-03-15T05:48:22.604Z,97.03
2023-03-15T05:49:22.580Z,96.93
2023-03-15T05:50:22.570Z,97.03
2023-03-15T05:51:22.567Z,97.08
2023-03-15T05:52:22.538Z,97.03
2023-03-15T05:53:22.530Z,97.24
2023-03-15T05:54:22.515Z,97.35
2023-03-15T05:55:22.501Z,97.14
2023-03-15T05:56:22.485Z,96.93
2023-03-15T05:57:22.473Z,96.83
2023-03-15T05:58:22.458Z,96.61
2023-03-15T05:59:22.468Z,96.41
2023-03-15T06:00:22.443Z,96.30
2023-03-15T06:01:22.431Z,96.41
2023-03-15T06:02:22.439Z,96.51
2023-03-15T06:03:22.520Z,96.61
2023-03-15T06:04:22.451Z,96.67
2023-03-15T06:05:22.377Z,96.78
2023-03-15T06:06:22.372Z,96.67
2023-03-15T06:07:22.359Z,96.57
2023-03-15T06:08:22.338Z,96.57
2023-03-15T06:09:22.324Z,96.57
2023-03-15T06:10:22.309Z,96.67
2023-03-15T06:11:22.294Z,96.57
2023-03-15T06:12:22.279Z,96.57
2023-03-15T06:13:22.273Z,96.47
2023-03-15T06:14:22.252Z,96.36
2023-03-15T06:15:22.246Z,96.15
2023-03-15T06:16:22.257Z,95.94
2023-03-15T06:17:22.214Z,96.04
2023-03-15T06:18:22.209Z,96.15
2023-03-15T06:19:22.228Z,96.36
2023-03-15T06:20:22.185Z,96.36
2023-03-15T06:21:22.173Z,96.36
2023-03-15T06:22:22.174Z,96.57
2023-03-15T06:23:22.141Z,96.78
2023-03-15T06:24:22.129Z,96.99
2023-03-15T06:25:22.136Z,97.09
2023-03-15T06:26:22.109Z,96.99
2023-03-15T06:27:22.319Z,96.99
2023-03-15T06:28:22.079Z,96.47
2023-03-15T06:29:22.059Z,96.25
2023-03-15T06:30:22.054Z,95.94
2023-03-15T06:31:22.035Z,95.62
2023-03-15T06:32:22.089Z,95.62
2023-03-15T06:33:22.016Z,95.73
2023-03-15T06:34:21.995Z,95.48
2023-03-15T06:35:22.020Z,95.58
2023-03-15T06:36:22.006Z,95.64
2023-03-15T06:37:34.292Z,95.50
2023-03-15T06:38:22.982Z,94.82
2023-03-15T06:39:21.936Z,93.57
2023-03-15T06:40:21.915Z,91.77
2023-03-15T06:41:21.906Z,89.45
2023-03-15T06:42:21.897Z,87.16
2023-03-15T06:43:21.887Z,82.32
2023-03-15T06:44:21.865Z,77.33
2023-03-15T06:45:21.852Z,71.37
2023-03-15T06:46:21.895Z,65.46
2023-03-15T06:47:21.834Z,62.90
2023-03-15T06:48:21.818Z,60.21
2023-03-15T06:49:21.815Z,57.77
2023-03-15T06:50:21.797Z,55.26
2023-03-15T06:51:21.874Z,54.05
2023-03-15T06:52:21.785Z,52.87
2023-03-15T06:53:21.754Z,51.50
2023-03-15T06:54:21.735Z,50.12
2023-03-15T06:55:21.730Z,49.41
2023-03-15T06:56:21.711Z,49.43
2023-03-15T06:57:21.710Z,50.12
2023-03-15T06:58:21.691Z,49.30
2023-03-15T06:59:21.681Z,49.26
2023-03-15T07:00:21.672Z,48.22
2023-03-15T07:01:21.687Z,47.17
2023-03-15T07:02:21.670Z,46.55
2023-03-15T07:03:21.633Z,46.62
2023-03-15T07:04:21.665Z,46.20
2023-03-15T07:05:21.611Z,46.22
2023-03-15T07:06:21.585Z,45.91
2023-03-15T07:07:21.608Z,45.50
2023-03-15T07:08:21.568Z,45.79
2023-03-15T07:09:21.553Z,46.37
2023-03-15T07:10:21.556Z,44.93
2023-03-15T07:11:21.529Z,45.03
2023-03-15T07:12:21.514Z,45.32
2023-03-15T07:13:21.512Z,44.51
2023-03-15T07:14:21.489Z,43.65
2023-03-15T07:15:21.476Z,43.44
2023-03-15T07:16:21.505Z,42.92
2023-03-15T07:17:21.466Z,42.84
2023-03-15T07:18:21.431Z,43.65
2023-03-15T07:19:21.417Z,43.65
2023-03-15T07:20:21.411Z,43.75
2023-03-15T07:21:21.394Z,43.24
2023-03-15T07:22:21.387Z,42.82
2023-03-15T07:23:21.405Z,42.21
2023-03-15T07:24:21.353Z,42.60
2023-03-15T07:25:21.340Z,41.91
2023-03-15T07:26:21.332Z,42.92
2023-03-15T07:27:21.319Z,42.41
2023-03-15T07:28:21.304Z,41.93
2023-03-15T07:29:21.298Z,42.96
2023-03-15T07:30:21.275Z,43.71
2023-03-15T07:31:21.266Z,44.16
2023-03-15T07:32:21.462Z,45.01
2023-03-15T07:33:21.280Z,47.04
2023-03-15T07:34:21.225Z,49.32
2023-03-15T07:35:21.221Z,51.87
2023-03-15T07:36:21.208Z,54.10
2023-03-15T07:37:21.191Z,55.57
2023-03-15T07:38:21.177Z,55.93
2023-03-15T07:39:21.186Z,57.16
2023-03-15T07:40:21.158Z,57.75
2023-03-15T07:41:21.148Z,57.36
2023-03-15T07:42:21.117Z,57.18
2023-03-15T07:43:21.123Z,58.06
2023-03-15T07:44:21.102Z,62.06
2023-03-15T07:45:21.077Z,63.34
2023-03-15T07:46:21.104Z,66.32
2023-03-15T07:47:21.059Z,67.63
2023-03-15T07:48:21.305Z,69.63
2023-03-15T07:49:21.033Z,71.32
2023-03-15T07:50:21.021Z,71.22
2023-03-15T07:51:21.002Z,72.71
2023-03-15T07:52:20.991Z,72.19
2023-03-15T07:53:20.993Z,72.29
2023-03-15T07:54:20.965Z,70.97
2023-03-15T07:55:20.987Z,72.42
2023-03-15T07:56:20.936Z,72.81
2023-03-15T07:57:20.922Z,70.91
2023-03-15T07:58:20.928Z,71.50
2023-03-15T07:59:20.906Z,70.12
2023-03-15T08:00:20.890Z,69.53
2023-03-15T08:01:20.887Z,70.77
2023-03-15T08:02:20.980Z,70.32
2023-03-15T08:03:20.857Z,70.36
2023-03-15T08:04:20.831Z,70.47
2023-03-15T08:05:20.817Z,70.15
2023-03-15T08:06:20.818Z,70.64
2023-03-15T08:07:20.800Z,69.23
2023-03-15T08:08:20.787Z,68.54
2023-03-15T08:09:20.766Z,69.37
2023-03-15T08:10:20.770Z,69.54
2023-03-15T08:11:20.783Z,68.54
2023-03-15T08:12:20.728Z,67.75
2023-03-15T08:13:20.722Z,66.61
2023-03-15T08:14:20.717Z,66.51
2023-03-15T08:15:20.696Z,68.06
2023-03-15T08:16:20.736Z,66.10
2023-03-15T08:17:20.673Z,67.24
2023-03-15T08:18:20.664Z,65.09
2023-03-15T08:19:20.641Z,67.82
2023-03-15T08:20:20.650Z,66.14
2023-03-15T08:21:20.619Z,67.69
2023-03-15T08:22:20.624Z,67.00
2023-03-15T08:23:20.587Z,67.10
2023-03-15T08:24:20.686Z,67.24
2023-03-15T08:25:20.563Z,68.92
2023-03-15T08:26:20.552Z,69.09
2023-03-15T08:27:20.575Z,68.99
2023-03-15T08:28:20.533Z,69.46
2023-03-15T08:29:20.506Z,72.39
2023-03-15T08:30:20.502Z,72.91
2023-03-15T08:31:20.502Z,74.29
2023-03-15T08:32:20.468Z,75.43
2023-03-15T08:33:20.456Z,76.09
2023-03-15T08:34:20.442Z,75.67
2023-03-15T08:35:20.671Z,74.67
2023-03-15T08:36:20.462Z,74.77
2023-03-15T08:37:20.414Z,75.74
2023-03-15T08:38:20.403Z,73.94
2023-03-15T08:39:20.377Z,75.33
2023-03-15T08:40:20.363Z,76.64
2023-03-15T08:41:20.376Z,75.43
2023-03-15T08:42:20.343Z,75.43
2023-03-15T08:43:20.372Z,76.43
2023-03-15T08:44:20.314Z,76.81
2023-03-15T08:45:20.306Z,76.46
2023-03-15T08:46:20.397Z,74.95
2023-03-15T08:47:20.290Z,74.19
2023-03-15T08:48:20.273Z,72.19
2023-03-15T08:49:20.253Z,72.64
2023-03-15T08:50:20.238Z,70.95
2023-03-15T08:51:20.227Z,70.54
2023-03-15T08:52:20.224Z,70.54
2023-03-15T08:53:20.195Z,70.88
2023-03-15T08:54:20.190Z,70.71
2023-03-15T08:55:20.174Z,71.26
2023-03-15T08:56:20.165Z,71.29
2023-03-15T08:57:20.151Z,71.19
2023-03-15T08:58:20.149Z,71.88
2023-03-15T08:59:31.326Z,73.05
2023-03-15T09:00:21.153Z,74.08
2023-03-15T09:01:20.093Z,74.22
2023-03-15T09:02:20.153Z,74.29
2023-03-15T09:03:20.081Z,76.75
2023-03-15T09:04:20.133Z,77.68
2023-03-15T09:05:20.047Z,76.64
2023-03-15T09:06:20.035Z,75.57
2023-03-15T09:07:20.030Z,72.22
2023-03-15T09:08:20.009Z,69.19
2023-03-15T09:09:19.991Z,69.64
2023-03-15T09:10:19.990Z,68.58
2023-03-15T09:11:19.979Z,66.00
2023-03-15T09:12:19.959Z,69.17
2023-03-15T09:13:19.951Z,69.31
2023-03-15T09:14:19.926Z,69.40
2023-03-15T09:15:20.057Z,68.30
2023-03-15T09:16:19.948Z,68.73
2023-03-15T09:17:19.896Z,66.33
2023-03-15T09:18:19.891Z,64.06
2023-03-15T09:19:19.873Z,64.92
2023-03-15T09:20:19.863Z,66.56
2023-03-15T09:21:19.862Z,66.84
2023-03-15T09:22:34.709Z,64.27
2023-03-15T09:23:20.855Z,63.85
2023-03-15T09:24:19.830Z,64.58
2023-03-15T09:25:19.813Z,65.67
2023-03-15T09:26:19.793Z,67.00
2023-03-15T09:27:19.788Z,70.03
2023-03-15T09:28:19.772Z,65.37
2023-03-15T09:29:19.748Z,67.85
2023-03-15T09:30:19.731Z,70.16
2023-03-15T09:31:19.908Z,71.92
2023-03-15T09:32:19.709Z,70.06
2023-03-15T09:33:19.710Z,67.24
2023-03-15T09:34:20.523Z,68.54
2023-03-15T09:35:19.697Z,68.34
2023-03-15T09:36:19.668Z,67.90
2023-03-15T09:37:19.657Z,67.00
2023-03-15T09:38:19.625Z,63.21
2023-03-15T09:39:19.630Z,62.51
2023-03-15T09:40:19.620Z,61.46
2023-03-15T09:41:19.601Z,58.74
2023-03-15T09:42:19.590Z,57.94
2023-03-15T09:43:19.574Z,55.58
2023-03-15T09:44:19.583Z,55.49
2023-03-15T09:45:19.538Z,56.51
2023-03-15T09:46:19.602Z,57.23
2023-03-15T09:47:19.540Z,56.87
2023-03-15T09:48:19.508Z,58.49
2023-03-15T09:49:19.497Z,58.87
2023-03-15T09:50:19.481Z,59.78
2023-03-15T09:51:19.472Z,60.89
2023-03-15T09:52:19.456Z,64.84
2023-03-15T09:53:19.457Z,65.25
2023-03-15T09:54:19.557Z,64.84
2023-03-15T09:55:19.410Z,66.15
2023-03-15T09:56:19.418Z,61.24
2023-03-15T09:57:19.390Z,63.37
2023-03-15T09:58:19.388Z,60.72
2023-03-15T09:59:19.382Z,62.52
2023-03-15T10:00:19.346Z,60.12
2023-03-15T10:01:19.377Z,60.33
2023-03-15T10:02:19.318Z,60.17
2023-03-15T10:03:19.380Z,62.47
2023-03-15T10:04:19.292Z,62.68
2023-03-15T10:05:19.294Z,61.44
2023-03-15T10:06:19.275Z,63.12
2023-03-15T10:07:19.262Z,60.28
2023-03-15T10:08:19.276Z,61.83
2023-03-15T10:09:19.244Z,58.87
2023-03-15T10:10:19.236Z,59.20
2023-03-15T10:11:19.202Z,59.72
2023-03-15T10:12:19.198Z,62.38
2023-03-15T10:13:19.176Z,60.60
2023-03-15T10:14:19.180Z,61.44
2023-03-15T10:15:19.189Z,58.11
2023-03-15T10:16:19.185Z,55.41
2023-03-15T10:17:19.144Z,55.74
2023-03-15T10:18:19.123Z,56.46
2023-03-15T10:19:19.134Z,59.04
2023-03-15T10:20:19.097Z,58.42
2023-03-15T10:21:19.074Z,58.91
2023-03-15T10:22:19.067Z,61.49
2023-03-15T10:23:19.063Z,59.38
2023-03-15T10:24:19.048Z,61.24
2023-03-15T10:25:19.023Z,60.54
2023-03-15T10:26:19.029Z,60.23
2023-03-15T10:27:19.018Z,59.33
2023-03-15T10:28:18.984Z,60.28
2023-03-15T10:29:18.982Z,62.79
2023-03-15T10:30:18.967Z,61.45
2023-03-15T10:31:22.906Z,62.17
2023-03-15T10:32:19.987Z,63.10
2023-03-15T10:33:18.919Z,61.66
2023-03-15T10:34:18.918Z,61.27
2023-03-15T10:35:18.934Z,63.34
2023-03-15T10:36:18.940Z,64.96
2023-03-15T10:37:18.894Z,66.51
2023-03-15T10:38:18.865Z,68.75
2023-03-15T10:39:18.844Z,68.34
2023-03-15T10:40:18.825Z,64.73
2023-03-15T10:41:28.543Z,65.73
2023-03-15T10:42:19.833Z,64.39
2023-03-15T10:43:18.800Z,65.11
2023-03-15T10:44:18.782Z,64.36
2023-03-15T10:45:18.794Z,65.18
2023-03-15T10:46:18.827Z,63.95
2023-03-15T10:47:24.790Z,64.87
2023-03-15T10:48:19.750Z,65.39
2023-03-15T10:49:18.715Z,65.15
2023-03-15T10:50:18.717Z,62.50
2023-03-15T10:51:18.710Z,62.08
2023-03-15T10:52:18.680Z,61.60
2023-03-15T10:53:18.659Z,64.07
2023-03-15T10:54:18.658Z,63.97
2023-03-15T10:55:18.662Z,62.63
2023-03-15T10:56:18.631Z,62.94
2023-03-15T10:57:18.608Z,63.35
2023-03-15T10:58:18.606Z,63.87
2023-03-15T10:59:18.589Z,64.28
2023-03-15T11:00:18.601Z,64.90
2023-03-15T11:01:18.619Z,65.73
2023-03-15T11:02:18.568Z,63.35
2023-03-15T11:03:18.586Z,63.04
2023-03-15T11:04:18.523Z,60.54
2023-03-15T11:05:18.511Z,56.41
2023-03-15T11:06:18.495Z,56.62
2023-03-15T11:07:18.550Z,56.44
2023-03-15T11:08:18.469Z,57.99
2023-03-15T11:09:18.466Z,58.92
2023-03-15T11:10:18.530Z,56.65
2023-03-15T11:11:18.439Z,57.78
2023-03-15T11:12:19.542Z,58.09
2023-03-15T11:13:18.435Z,59.23
2023-03-15T11:14:18.397Z,59.33
2023-03-15T11:15:18.389Z,60.77
2023-03-15T11:16:18.507Z,59.44
2023-03-15T11:17:18.359Z,59.46
2023-03-15T11:18:18.337Z,60.60
2023-03-15T11:19:18.336Z,59.05
2023-03-15T11:20:18.424Z,61.11
2023-03-15T11:21:18.306Z,59.46
2023-03-15T11:22:18.285Z,60.77
2023-03-15T11:23:18.306Z,62.12
2023-03-15T11:24:18.287Z,59.74
2023-03-15T11:25:18.253Z,58.27
2023-03-15T11:26:29.534Z,58.40
2023-03-15T11:27:19.246Z,59.72
2023-03-15T11:28:18.212Z,58.99
2023-03-15T11:29:18.213Z,58.06
2023-03-15T11:30:18.200Z,58.06
2023-03-15T11:31:18.251Z,55.30
2023-03-15T11:32:18.165Z,53.45
2023-03-15T11:33:18.145Z,56.54
2023-03-15T11:34:18.142Z,56.03
2023-03-15T11:35:18.131Z,58.06
2023-03-15T11:36:18.121Z,54.79
2023-03-15T11:37:18.106Z,56.93
2023-03-15T11:38:18.096Z,56.83
2023-03-15T11:39:18.104Z,56.10
2023-03-15T11:40:18.157Z,58.37
2023-03-15T11:41:18.069Z,59.20
2023-03-15T11:42:18.056Z,58.76
2023-03-15T11:43:18.030Z,59.07
2023-03-15T11:44:18.011Z,59.97
2023-03-15T11:45:17.998Z,57.39
2023-03-15T11:46:17.996Z,56.36
2023-03-15T11:47:17.977Z,59.04
2023-03-15T11:48:17.966Z,55.64
2023-03-15T11:49:17.950Z,56.88
2023-03-15T11:50:17.942Z,56.36
2023-03-15T11:51:17.915Z,56.80
2023-03-15T11:52:17.914Z,60.17
2023-03-15T11:53:17.911Z,56.67
2023-03-15T11:54:17.886Z,54.20
2023-03-15T11:55:17.902Z,55.95
2023-03-15T11:56:17.852Z,57.78
2023-03-15T11:57:17.843Z,57.47
2023-03-15T11:58:17.827Z,56.95
2023-03-15T11:59:17.821Z,57.26
2023-03-15T12:00:18.018Z,56.44
2023-03-15T12:01:17.797Z,55.72
2023-03-15T12:02:17.875Z,55.72
2023-03-15T12:03:17.859Z,55.21
2023-03-15T12:04:17.771Z,56.44
2023-03-15T12:05:18.465Z,56.82
2023-03-15T12:06:17.731Z,55.51
2023-03-15T12:07:17.745Z,58.47
2023-03-15T12:08:17.700Z,53.74
2023-03-15T12:09:17.684Z,54.35
2023-03-15T12:10:17.670Z,56.29
2023-03-15T12:11:17.696Z,53.50
2023-03-15T12:12:17.654Z,55.66
2023-03-15T12:13:17.644Z,53.61
2023-03-15T12:14:17.626Z,56.29
2023-03-15T12:15:17.670Z,55.36
2023-03-15T12:16:17.667Z,52.97
2023-03-15T12:17:17.589Z,53.30
2023-03-15T12:18:17.566Z,55.95
2023-03-15T12:19:17.555Z,55.54
2023-03-15T12:20:17.553Z,55.54
2023-03-15T12:21:17.530Z,54.41
2023-03-15T12:22:17.538Z,54.22
2023-03-15T12:23:17.515Z,55.87
2023-03-15T12:24:17.493Z,53.17
2023-03-15T12:25:17.485Z,55.43
2023-03-15T12:26:17.476Z,53.61
2023-03-15T12:27:17.495Z,54.82
2023-03-15T12:28:17.455Z,55.33
2023-03-15T12:29:17.435Z,54.20
2023-03-15T12:30:17.423Z,55.41
2023-03-15T12:31:17.501Z,53.38
2023-03-15T12:32:17.386Z,51.42
2023-03-15T12:33:17.393Z,52.89
2023-03-15T12:34:17.370Z,52.27
2023-03-15T12:35:17.361Z,52.99
2023-03-15T12:36:17.332Z,51.76
2023-03-15T12:37:17.324Z,53.33
2023-03-15T12:38:17.323Z,54.66
2023-03-15T12:39:17.314Z,53.12
2023-03-15T12:40:17.297Z,53.50
2023-03-15T12:41:17.274Z,54.33
2023-03-15T12:42:17.268Z,53.20
2023-03-15T12:43:17.267Z,54.13
2023-03-15T12:44:17.231Z,53.20
2023-03-15T12:45:17.254Z,53.20
2023-03-15T12:46:17.334Z,53.20
2023-03-15T12:47:17.232Z,53.07
2023-03-15T12:48:17.189Z,54.82
2023-03-15T12:49:17.161Z,53.07
2023-03-15T12:50:17.151Z,54.82
2023-03-15T12:51:17.162Z,53.79
2023-03-15T12:52:17.142Z,53.48